Time;durP1;ratioP1;P1;durP2;ratioP2;P2;SDS_P1;SDS_P2;PMS_P1;PMS_P2;Temp;Humidity;BMP_temperature;BMP_pressure;BME280_temperature;BME280_humidity;BME280_pressure;Samples;Min_cycle;Max_cycle;Signal;HPM_P1;HPM_P2
2023/11/19 00:02:20;;;;;;;25.10;5.50;;;13.70;99.90;;;;;;5020163;28;20095;-75
2023/11/19 00:04:46;;;;;;;19.38;4.78;;;13.70;99.90;;;;;;5018439;28;20065;-73
2023/11/19 00:07:13;;;;;;;20.88;5.18;;;13.70;99.90;;;;;;5020903;28;20064;-74
2023/11/19 00:09:39;;;;;;;25.23;5.53;;;13.70;99.90;;;;;;5018075;28;20423;-74
2023/11/19 00:12:06;;;;;;;25.50;5.95;;;13.70;99.90;;;;;;5021898;28;20044;-74
2023/11/19 00:14:32;;;;;;;26.92;5.53;;;13.70;99.90;;;;;;5015505;28;20542;-74
2023/11/19 00:17:03;;;;;;;28.35;6.57;;;13.70;99.90;;;;;;5018901;28;20044;-75
2023/11/19 00:19:29;;;;;;;21.63;5.60;;;13.70;99.90;;;;;;5020131;28;20022;-75
2023/11/19 00:21:55;;;;;;;25.05;6.18;;;13.70;99.90;;;;;;5021798;28;20037;-74
2023/11/19 00:24:20;;;;;;;30.88;6.05;;;13.60;99.90;;;;;;5018912;28;20453;-75
2023/11/19 00:26:46;;;;;;;24.13;5.95;;;13.60;99.90;;;;;;5019095;28;20037;-75
2023/11/19 00:29:13;;;;;;;28.48;6.65;;;13.60;99.90;;;;;;5016639;28;20037;-75
2023/11/19 00:31:39;;;;;;;25.70;6.15;;;13.60;99.80;;;;;;5017701;28;20055;-76
2023/11/19 00:34:06;;;;;;;27.65;6.18;;;13.60;99.80;;;;;;5021329;28;20545;-74
2023/11/19 00:36:31;;;;;;;33.45;6.80;;;13.60;99.70;;;;;;5015160;28;20045;-75
2023/11/19 00:38:57;;;;;;;29.88;6.47;;;13.60;99.60;;;;;;5018587;28;20075;-75
2023/11/19 00:41:23;;;;;;;35.35;7.13;;;13.60;99.60;;;;;;5017708;28;20452;-74
2023/11/19 00:43:49;;;;;;;31.52;6.93;;;13.60;99.50;;;;;;5009426;28;20030;-74
2023/11/19 00:46:14;;;;;;;30.92;7.15;;;13.60;99.30;;;;;;5014540;28;20483;-76
2023/11/19 00:48:40;;;;;;;28.10;7.32;;;13.60;99.30;;;;;;5016683;28;20037;-73
2023/11/19 00:51:06;;;;;;;40.58;7.47;;;13.60;99.00;;;;;;5019404;28;20065;-78
2023/11/19 00:53:33;;;;;;;26.45;6.40;;;13.70;98.70;;;;;;5013313;28;20053;-73
2023/11/19 00:55:59;;;;;;;28.80;6.57;;;13.60;98.50;;;;;;5019913;28;20042;-74
2023/11/19 00:58:25;;;;;;;34.63;6.78;;;13.60;98.40;;;;;;5017899;28;20252;-77
2023/11/19 01:00:50;;;;;;;31.52;6.80;;;13.60;98.40;;;;;;5022958;28;20065;-74
2023/11/19 01:03:16;;;;;;;25.33;6.15;;;13.50;98.40;;;;;;5023156;28;20483;-74
2023/11/19 01:05:42;;;;;;;26.90;6.25;;;13.40;98.40;;;;;;5021354;28;20304;-75
2023/11/19 01:08:08;;;;;;;28.58;6.55;;;13.40;98.50;;;;;;5031933;28;20095;-74
2023/11/19 01:10:34;;;;;;;35.67;7.45;;;13.30;98.60;;;;;;5017268;28;20394;-77
2023/11/19 01:12:59;;;;;;;30.75;7.40;;;13.30;98.60;;;;;;5014101;28;20050;-74
2023/11/19 01:15:26;;;;;;;23.98;6.90;;;13.30;98.70;;;;;;5019819;28;20475;-74
2023/11/19 01:17:51;;;;;;;28.48;7.25;;;13.30;98.80;;;;;;5019890;28;20554;-76
2023/11/19 01:20:17;;;;;;;35.33;7.68;;;13.30;98.80;;;;;;5017984;28;20125;-74
2023/11/19 01:22:43;;;;;;;34.88;7.18;;;13.30;98.90;;;;;;5019848;28;20135;-73
2023/11/19 01:25:09;;;;;;;33.33;7.13;;;13.30;98.80;;;;;;5019617;28;20193;-74
2023/11/19 01:27:35;;;;;;;36.30;7.25;;;13.20;98.80;;;;;;5019732;28;20481;-73
2023/11/19 01:30:05;;;;;;;29.90;7.05;;;13.20;98.80;;;;;;5018364;28;20048;-74
2023/11/19 01:32:31;;;;;;;35.33;7.45;;;13.20;98.80;;;;;;5022194;28;20088;-73
2023/11/19 01:34:57;;;;;;;32.00;6.50;;;13.20;98.80;;;;;;5020638;28;20041;-76
2023/11/19 01:37:23;;;;;;;30.55;6.53;;;13.20;98.80;;;;;;5020402;28;20414;-75
2023/11/19 01:39:49;;;;;;;29.95;6.32;;;13.20;98.70;;;;;;5023475;28;20087;-74
2023/11/19 01:42:15;;;;;;;31.17;6.45;;;13.10;98.60;;;;;;5022819;28;20120;-73
2023/11/19 01:44:41;;;;;;;27.60;6.57;;;13.20;98.60;;;;;;5021953;28;20451;-76
2023/11/19 01:47:08;;;;;;;36.00;6.95;;;13.10;98.70;;;;;;5021102;28;20037;-76
2023/11/19 01:49:34;;;;;;;28.83;6.40;;;13.10;98.70;;;;;;5022464;28;20025;-74
2023/11/19 01:52:00;;;;;;;39.20;7.60;;;13.10;98.70;;;;;;5022735;28;20441;-76
2023/11/19 01:54:27;;;;;;;30.50;7.05;;;13.10;98.60;;;;;;5024123;28;20505;-73
2023/11/19 01:56:56;;;;;;;37.72;7.50;;;13.10;98.60;;;;;;5023289;28;20141;-75
2023/11/19 01:59:26;;;;;;;32.90;6.97;;;13.10;98.40;;;;;;5026031;28;20095;-75
2023/11/19 02:01:53;;;;;;;35.58;7.72;;;13.10;98.40;;;;;;5024083;28;20080;-75
2023/11/19 02:04:22;;;;;;;36.05;7.03;;;13.10;98.40;;;;;;5022661;28;20083;-74
2023/11/19 02:06:50;;;;;;;36.10;7.68;;;13.10;98.40;;;;;;5021429;28;20510;-75
2023/11/19 02:09:19;;;;;;;34.55;7.53;;;13.10;98.40;;;;;;5022849;28;20431;-76
2023/11/19 02:11:48;;;;;;;36.03;7.38;;;13.10;98.30;;;;;;5037396;28;20531;-73
2023/11/19 02:14:14;;;;;;;32.53;7.75;;;13.10;98.30;;;;;;5022981;28;20075;-73
2023/11/19 02:16:39;;;;;;;34.65;7.75;;;13.00;98.30;;;;;;5021429;28;20033;-74
2023/11/19 02:19:06;;;;;;;34.97;7.70;;;13.00;98.30;;;;;;5022963;28;20409;-73
2023/11/19 02:21:31;;;;;;;32.92;6.72;;;13.00;98.30;;;;;;5016583;28;20030;-74
2023/11/19 02:23:57;;;;;;;38.33;7.57;;;13.00;98.30;;;;;;5017067;28;20035;-74
2023/11/19 02:26:27;;;;;;;35.95;7.15;;;13.00;98.20;;;;;;5015802;28;20121;-74
2023/11/19 02:28:53;;;;;;;32.72;7.28;;;12.90;98.00;;;;;;5028152;28;20056;-74
2023/11/19 02:31:20;;;;;;;42.80;8.18;;;12.90;98.10;;;;;;5040803;28;20045;-76
2023/11/19 02:33:45;;;;;;;37.10;7.60;;;12.90;98.10;;;;;;5041072;28;20056;-76
2023/11/19 02:36:11;;;;;;;37.17;6.90;;;12.80;98.00;;;;;;5032390;28;20033;-74
2023/11/19 02:38:37;;;;;;;38.95;8.05;;;12.80;97.90;;;;;;5017989;28;20048;-73
2023/11/19 02:41:07;;;;;;;36.83;7.90;;;12.70;97.90;;;;;;5020733;28;20034;-74
2023/11/19 02:43:33;;;;;;;39.85;8.48;;;12.70;97.90;;;;;;5020782;28;20115;-76
2023/11/19 02:46:06;;;;;;;40.20;7.22;;;12.70;98.00;;;;;;5022013;28;20096;-73
2023/11/19 02:48:32;;;;;;;41.00;7.38;;;12.70;97.90;;;;;;5017084;28;20048;-73
2023/11/19 02:50:58;;;;;;;32.33;6.75;;;12.70;97.80;;;;;;5020257;28;20037;-74
2023/11/19 02:53:24;;;;;;;36.95;7.75;;;12.70;97.70;;;;;;5016694;28;20509;-74
2023/11/19 02:55:50;;;;;;;30.90;6.40;;;12.60;97.60;;;;;;5021383;28;20030;-74
2023/11/19 02:58:27;;;;;;;36.47;7.35;;;12.60;97.50;;;;;;5022049;28;20044;-74
2023/11/19 03:01:09;;;;;;;32.42;7.78;;;12.50;97.50;;;;;;5017624;28;20065;-76
2023/11/19 03:03:38;;;;;;;39.03;8.95;;;12.50;97.60;;;;;;5019868;28;20049;-73
2023/11/19 03:06:05;;;;;;;36.05;7.53;;;12.40;97.60;;;;;;5023678;28;20388;-75
2023/11/19 03:08:30;;;;;;;37.17;8.00;;;12.40;97.50;;;;;;5021932;28;20033;-74
2023/11/19 03:10:56;;;;;;;36.35;7.13;;;12.40;97.50;;;;;;5020756;28;20049;-74
2023/11/19 03:13:22;;;;;;;37.55;7.80;;;12.40;97.50;;;;;;5021220;28;20034;-74
2023/11/19 03:15:47;;;;;;;33.85;7.22;;;12.40;97.50;;;;;;5022879;28;20147;-74
2023/11/19 03:18:13;;;;;;;32.22;8.35;;;12.30;97.40;;;;;;5027845;28;20347;-75
2023/11/19 03:20:40;;;;;;;37.42;7.78;;;12.40;97.50;;;;;;5024102;28;20386;-73
2023/11/19 03:23:06;;;;;;;36.03;7.53;;;12.30;97.50;;;;;;5016415;28;20055;-73
2023/11/19 03:25:36;;;;;;;38.10;8.73;;;12.30;97.50;;;;;;5018777;28;20408;-74
2023/11/19 03:28:03;;;;;;;37.80;8.05;;;12.40;97.50;;;;;;5018568;28;20037;-75
2023/11/19 03:30:29;;;;;;;40.83;7.88;;;12.40;97.30;;;;;;5019301;28;20041;-74
2023/11/19 03:32:58;;;;;;;42.42;7.85;;;12.40;97.20;;;;;;5020215;28;20038;-74
2023/11/19 03:35:24;;;;;;;37.80;7.88;;;12.50;96.90;;;;;;5019221;28;20049;-74
2023/11/19 03:37:50;;;;;;;35.28;8.07;;;12.60;96.50;;;;;;5017698;28;20253;-73
2023/11/19 03:40:16;;;;;;;41.25;7.50;;;12.60;96.20;;;;;;5021422;28;20045;-77
2023/11/19 03:42:42;;;;;;;39.75;8.35;;;12.60;95.90;;;;;;5017553;28;20045;-75
2023/11/19 03:45:11;;;;;;;38.85;7.78;;;12.60;95.80;;;;;;5033283;28;20030;-74
2023/11/19 03:47:38;;;;;;;47.72;9.15;;;12.50;95.80;;;;;;5018752;28;20041;-76
2023/11/19 03:50:05;;;;;;;40.55;7.85;;;12.50;95.90;;;;;;5020220;28;20037;-75
2023/11/19 03:52:31;;;;;;;36.83;7.90;;;12.50;95.90;;;;;;5017796;28;20116;-75
2023/11/19 03:54:57;;;;;;;34.88;7.55;;;12.40;95.80;;;;;;5016577;28;20112;-75
2023/11/19 03:57:23;;;;;;;39.00;7.63;;;12.40;95.80;;;;;;5021527;28;20025;-74
2023/11/19 03:59:49;;;;;;;47.90;8.98;;;12.30;95.80;;;;;;5019219;28;20451;-74
2023/11/19 04:02:15;;;;;;;33.05;6.53;;;12.30;95.80;;;;;;5018783;28;20022;-75
2023/11/19 04:04:41;;;;;;;41.47;8.52;;;12.30;95.80;;;;;;5019611;28;20030;-76
2023/11/19 04:07:07;;;;;;;34.22;8.00;;;12.30;95.60;;;;;;5017365;28;20068;-76
2023/11/19 04:09:37;;;;;;;41.38;7.47;;;12.30;95.40;;;;;;5017130;28;20051;-73
2023/11/19 04:12:03;;;;;;;40.88;7.57;;;12.30;95.20;;;;;;5015239;28;20052;-78
2023/11/19 04:14:29;;;;;;;38.15;8.10;;;12.30;95.00;;;;;;5018467;28;20478;-77
2023/11/19 04:16:55;;;;;;;34.10;8.57;;;12.30;94.80;;;;;;5018551;28;20045;-76
2023/11/19 04:19:21;;;;;;;37.05;6.90;;;12.20;94.90;;;;;;5021817;28;20029;-74
2023/11/19 04:21:47;;;;;;;38.05;7.88;;;12.20;94.80;;;;;;5017625;28;20030;-73
2023/11/19 04:24:14;;;;;;;48.83;9.00;;;12.20;94.80;;;;;;5025548;28;20040;-75
2023/11/19 04:26:44;;;;;;;43.78;8.60;;;12.10;94.80;;;;;;5020223;28;20030;-73
2023/11/19 04:29:12;;;;;;;37.08;7.65;;;12.10;94.70;;;;;;5017862;28;20060;-76
2023/11/19 04:31:39;;;;;;;46.35;8.57;;;12.10;94.80;;;;;;5018886;28;20042;-74
2023/11/19 04:34:06;;;;;;;41.38;8.43;;;12.10;94.90;;;;;;5018508;28;20037;-75
2023/11/19 04:36:32;;;;;;;41.08;7.90;;;12.10;95.10;;;;;;5016782;28;20560;-75
2023/11/19 04:38:59;;;;;;;33.33;7.60;;;12.10;95.00;;;;;;5018627;28;20028;-76
2023/11/19 04:41:25;;;;;;;43.10;9.55;;;12.10;95.00;;;;;;5015488;28;20041;-74
2023/11/19 04:43:51;;;;;;;34.20;7.82;;;12.00;95.00;;;;;;5017694;28;20040;-74
2023/11/19 04:46:17;;;;;;;39.05;8.00;;;12.00;95.20;;;;;;5014842;28;20030;-74
2023/11/19 04:48:42;;;;;;;39.28;8.52;;;11.90;95.00;;;;;;5017177;28;20438;-74
2023/11/19 04:51:10;;;;;;;38.13;7.25;;;11.90;95.00;;;;;;5019927;28;20048;-75
2023/11/19 04:53:36;;;;;;;39.70;8.57;;;11.90;95.00;;;;;;5017623;28;20052;-74
2023/11/19 04:56:08;;;;;;;37.35;8.10;;;11.80;95.10;;;;;;5020403;28;20030;-75
2023/11/19 04:58:35;;;;;;;43.13;8.63;;;11.70;95.20;;;;;;5019617;28;20088;-76
2023/11/19 05:01:01;;;;;;;40.05;8.98;;;11.70;95.20;;;;;;5017512;28;20037;-73
2023/11/19 05:03:27;;;;;;;44.92;8.45;;;11.70;95.30;;;;;;5020293;28;20048;-74
2023/11/19 05:05:53;;;;;;;37.28;7.60;;;11.70;95.30;;;;;;5021365;28;20084;-74
2023/11/19 05:08:19;;;;;;;45.28;8.30;;;11.80;95.10;;;;;;5021898;28;20034;-75
2023/11/19 05:10:45;;;;;;;40.72;8.20;;;11.80;94.70;;;;;;5024857;28;20382;-75
2023/11/19 05:13:10;;;;;;;46.53;8.80;;;11.90;94.30;;;;;;5019407;28;20576;-74
2023/11/19 05:15:36;;;;;;;41.92;8.48;;;12.00;93.90;;;;;;5022505;28;20459;-72
2023/11/19 05:18:02;;;;;;;42.53;7.95;;;11.90;93.80;;;;;;5023053;28;20032;-77
2023/11/19 05:20:27;;;;;;;42.28;8.05;;;11.90;93.80;;;;;;5024046;28;20390;-75
2023/11/19 05:22:53;;;;;;;42.35;7.75;;;11.80;93.90;;;;;;5019285;28;20043;-74
2023/11/19 05:25:20;;;;;;;41.72;7.72;;;11.70;93.90;;;;;;5026777;28;20115;-75
2023/11/19 05:27:46;;;;;;;34.20;7.95;;;11.60;94.10;;;;;;5022789;28;20029;-77
2023/11/19 05:30:11;;;;;;;43.90;7.40;;;11.60;94.20;;;;;;5019486;28;20041;-75
2023/11/19 05:32:37;;;;;;;41.10;7.82;;;11.60;94.40;;;;;;5023168;28;20035;-74
2023/11/19 05:35:03;;;;;;;44.63;8.38;;;11.60;94.40;;;;;;5021503;28;20041;-74
2023/11/19 05:37:29;;;;;;;40.97;7.60;;;11.50;94.50;;;;;;5019478;28;20068;-75
2023/11/19 05:39:54;;;;;;;34.08;7.55;;;11.50;94.70;;;;;;5019781;28;20084;-74
2023/11/19 05:42:20;;;;;;;44.97;9.48;;;11.50;94.80;;;;;;5019916;28;20029;-75
2023/11/19 05:44:46;;;;;;;42.80;7.90;;;11.50;95.00;;;;;;5022057;28;20042;-76
2023/11/19 05:47:12;;;;;;;40.60;7.78;;;11.50;95.10;;;;;;5022076;28;20038;-75
2023/11/19 05:49:38;;;;;;;41.03;7.53;;;11.50;95.00;;;;;;5020348;28;20052;-76
2023/11/19 05:52:07;;;;;;;38.92;7.90;;;11.60;95.10;;;;;;5019467;28;20036;-76
2023/11/19 05:54:37;;;;;;;40.85;7.53;;;11.50;95.00;;;;;;5022486;28;20041;-75
2023/11/19 05:57:09;;;;;;;37.95;8.75;;;11.60;95.00;;;;;;5020597;28;20079;-72
2023/11/19 05:59:36;;;;;;;35.75;6.82;;;11.50;95.00;;;;;;5022644;28;20029;-77
2023/11/19 06:02:02;;;;;;;48.03;9.55;;;11.50;95.00;;;;;;5023420;28;20037;-73
2023/11/19 06:04:28;;;;;;;37.03;7.30;;;11.50;95.00;;;;;;5021520;28;20064;-73
2023/11/19 06:06:54;;;;;;;37.88;7.28;;;11.40;95.00;;;;;;5020809;28;20037;-74
2023/11/19 06:09:22;;;;;;;39.15;6.93;;;11.40;95.10;;;;;;5023776;28;20113;-75
2023/11/19 06:11:50;;;;;;;35.53;7.05;;;11.40;95.10;;;;;;5017316;28;20049;-73
2023/11/19 06:14:16;;;;;;;45.65;8.18;;;11.40;95.20;;;;;;5020659;28;20354;-73
2023/11/19 06:16:42;;;;;;;36.95;8.23;;;11.40;95.30;;;;;;5021125;28;20533;-73
2023/11/19 06:19:07;;;;;;;40.90;7.88;;;11.30;95.40;;;;;;5020942;28;20177;-73
2023/11/19 06:21:33;;;;;;;36.40;7.20;;;11.30;95.50;;;;;;5021463;28;20029;-73
2023/11/19 06:23:59;;;;;;;44.88;9.43;;;11.30;95.60;;;;;;5020890;28;20021;-74
2023/11/19 06:26:24;;;;;;;45.15;8.98;;;11.30;95.70;;;;;;5021332;28;20025;-74
2023/11/19 06:28:50;;;;;;;35.72;8.15;;;11.30;95.70;;;;;;5017814;28;20519;-73
2023/11/19 06:31:16;;;;;;;46.03;8.45;;;11.20;95.70;;;;;;5019790;28;20075;-74
2023/11/19 06:33:42;;;;;;;42.30;9.77;;;11.20;95.80;;;;;;5019211;28;20037;-74
2023/11/19 06:36:09;;;;;;;41.05;9.07;;;11.20;95.90;;;;;;5022966;28;20039;-73
2023/11/19 06:38:34;;;;;;;42.60;10.38;;;11.20;96.10;;;;;;5017242;28;20039;-74
2023/11/19 06:41:01;;;;;;;43.15;8.90;;;11.10;96.20;;;;;;5018868;28;20025;-73
2023/11/19 06:43:27;;;;;;;45.80;9.05;;;11.20;96.40;;;;;;5021340;28;20587;-73
2023/11/19 06:45:54;;;;;;;43.95;8.48;;;11.20;96.50;;;;;;5021893;28;20120;-74
2023/11/19 06:48:19;;;;;;;41.42;8.73;;;11.30;96.50;;;;;;5019095;28;20040;-72
2023/11/19 06:50:45;;;;;;;40.58;7.85;;;11.30;96.50;;;;;;5020898;28;20030;-73
2023/11/19 06:53:11;;;;;;;52.30;10.38;;;11.40;96.60;;;;;;5020387;28;20079;-75
2023/11/19 06:55:37;;;;;;;45.65;9.38;;;11.50;96.40;;;;;;5023137;28;20021;-73
2023/11/19 06:58:03;;;;;;;47.42;9.07;;;11.40;96.40;;;;;;5012877;28;20072;-73
2023/11/19 07:00:29;;;;;;;42.78;7.57;;;11.40;96.40;;;;;;5021751;28;20525;-73
2023/11/19 07:02:55;;;;;;;37.22;8.88;;;11.40;96.40;;;;;;5020335;28;20121;-73
2023/11/19 07:05:21;;;;;;;43.13;7.70;;;11.40;96.50;;;;;;5018426;28;20075;-76
2023/11/19 07:07:46;;;;;;;34.67;7.85;;;11.40;96.50;;;;;;5022061;28;20045;-73
2023/11/19 07:10:12;;;;;;;49.67;9.32;;;11.40;96.50;;;;;;5037399;28;20025;-73
2023/11/19 07:12:38;;;;;;;44.95;9.85;;;11.40;96.50;;;;;;5023443;28;20091;-74
2023/11/19 07:15:05;;;;;;;35.63;7.75;;;11.40;96.50;;;;;;5024358;28;20724;-75
2023/11/19 07:17:31;;;;;;;38.28;7.53;;;11.50;96.50;;;;;;5035719;28;20085;-73
2023/11/19 07:19:59;;;;;;;43.67;8.73;;;11.40;96.30;;;;;;5022000;28;20037;-75
2023/11/19 07:22:25;;;;;;;38.65;7.53;;;11.50;96.30;;;;;;5017979;28;20030;-74
2023/11/19 07:24:51;;;;;;;49.50;8.23;;;11.50;96.10;;;;;;5022778;28;20514;-73
2023/11/19 07:27:17;;;;;;;50.22;9.38;;;11.50;96.20;;;;;;5016793;28;20033;-76
2023/11/19 07:29:44;;;;;;;49.05;8.55;;;11.50;96.30;;;;;;5020056;28;20049;-75
2023/11/19 07:32:10;;;;;;;42.47;8.52;;;11.60;96.20;;;;;;5017832;28;20088;-77
2023/11/19 07:34:36;;;;;;;43.05;8.18;;;11.70;96.10;;;;;;5019957;28;20099;-73
2023/11/19 07:37:02;;;;;;;48.83;8.82;;;11.80;96.00;;;;;;5017857;28;20053;-74
2023/11/19 07:39:31;;;;;;;41.95;8.23;;;11.80;95.90;;;;;;5018453;28;20021;-75
2023/11/19 07:41:56;;;;;;;45.10;8.85;;;11.80;95.70;;;;;;5017939;28;20112;-76
2023/11/19 07:44:22;;;;;;;38.72;8.60;;;11.90;95.60;;;;;;5016104;28;20038;-74
2023/11/19 07:46:48;;;;;;;47.45;8.60;;;12.00;95.30;;;;;;5017247;28;20125;-75
2023/11/19 07:49:14;;;;;;;38.88;8.02;;;12.00;95.20;;;;;;5019625;28;20422;-75
2023/11/19 07:51:39;;;;;;;29.75;6.43;;;11.90;95.20;;;;;;5018610;28;20025;-74
2023/11/19 07:54:05;;;;;;;40.97;7.88;;;12.00;95.20;;;;;;5021351;28;20454;-75
2023/11/19 07:56:35;;;;;;;44.13;9.07;;;12.00;95.20;;;;;;5019033;28;20885;-74
2023/11/19 07:59:04;;;;;;;44.70;8.32;;;12.00;95.20;;;;;;5020544;28;20135;-74
2023/11/19 08:01:29;;;;;;;50.28;8.98;;;12.00;95.30;;;;;;5019428;28;20042;-77
2023/11/19 08:03:55;;;;;;;45.22;7.97;;;12.00;95.30;;;;;;5021179;28;20414;-75
2023/11/19 08:06:21;;;;;;;51.78;7.97;;;12.00;95.50;;;;;;5018737;28;20474;-74
2023/11/19 08:08:47;;;;;;;42.25;8.40;;;12.10;95.50;;;;;;5019746;28;20060;-74
2023/11/19 08:11:14;;;;;;;39.13;7.07;;;12.10;95.30;;;;;;5019874;28;20025;-74
2023/11/19 08:13:39;;;;;;;48.08;7.78;;;12.10;95.30;;;;;;5020529;28;20060;-73
2023/11/19 08:16:05;;;;;;;33.78;8.40;;;12.10;95.20;;;;;;5018648;28;20037;-74
2023/11/19 08:18:31;;;;;;;42.17;8.38;;;12.10;95.20;;;;;;5019427;28;20756;-73
2023/11/19 08:20:58;;;;;;;38.03;7.43;;;12.20;95.20;;;;;;5018090;28;20033;-76
2023/11/19 08:23:25;;;;;;;38.65;8.75;;;12.30;95.20;;;;;;5020036;28;20041;-73
2023/11/19 08:25:51;;;;;;;44.72;9.43;;;12.40;95.00;;;;;;5018945;28;20475;-73
2023/11/19 08:28:16;;;;;;;37.88;7.70;;;12.40;94.90;;;;;;5014882;28;20040;-74
2023/11/19 08:30:43;;;;;;;39.35;7.55;;;12.40;94.80;;;;;;5018846;28;20514;-73
2023/11/19 08:33:09;;;;;;;39.53;7.28;;;12.50;94.70;;;;;;5014868;28;20029;-73
2023/11/19 08:35:35;;;;;;;44.63;9.18;;;12.40;94.50;;;;;;5018103;28;20045;-74
2023/11/19 08:38:01;;;;;;;36.72;8.15;;;12.40;94.70;;;;;;5016887;28;20316;-74
2023/11/19 08:40:27;;;;;;;36.47;7.68;;;12.40;94.90;;;;;;5020308;28;20116;-74
2023/11/19 08:42:53;;;;;;;41.00;9.15;;;12.50;94.90;;;;;;5023728;28;20068;-74
2023/11/19 08:45:19;;;;;;;39.95;9.23;;;12.60;94.90;;;;;;5024550;28;20037;-74
2023/11/19 08:47:45;;;;;;;36.15;8.68;;;12.80;94.80;;;;;;5018348;28;20041;-74
2023/11/19 08:50:11;;;;;;;37.17;8.02;;;13.00;94.50;;;;;;5023861;28;20091;-74
2023/11/19 08:52:37;;;;;;;44.80;10.32;;;13.10;94.10;;;;;;5018051;28;20097;-74
2023/11/19 08:55:05;;;;;;;42.17;7.78;;;13.20;93.90;;;;;;5024595;28;20049;-75
2023/11/19 08:57:31;;;;;;;36.92;6.95;;;13.20;93.50;;;;;;5020027;28;20046;-75
2023/11/19 08:59:56;;;;;;;34.63;7.25;;;13.30;93.10;;;;;;5023661;28;20037;-74
2023/11/19 09:02:22;;;;;;;36.35;8.07;;;13.30;93.10;;;;;;5019255;28;20623;-74
2023/11/19 09:04:48;;;;;;;35.03;8.02;;;13.20;92.80;;;;;;5025796;28;20060;-74
2023/11/19 09:07:13;;;;;;;32.22;7.45;;;13.20;92.80;;;;;;5022077;28;20038;-78
2023/11/19 09:09:39;;;;;;;32.75;8.07;;;13.10;92.80;;;;;;5014279;28;20105;-75
2023/11/19 09:12:05;;;;;;;38.15;7.93;;;13.10;92.80;;;;;;5022314;28;20034;-76
2023/11/19 09:14:30;;;;;;;32.30;9.27;;;13.20;92.80;;;;;;5020194;28;20038;-76
2023/11/19 09:16:56;;;;;;;35.45;9.15;;;13.20;92.70;;;;;;5022715;28;20044;-74
2023/11/19 09:19:22;;;;;;;29.95;7.28;;;13.50;92.90;;;;;;5025709;28;20033;-74
2023/11/19 09:21:49;;;;;;;31.48;7.13;;;13.60;92.60;;;;;;5020690;28;20037;-75
2023/11/19 09:24:15;;;;;;;33.00;7.68;;;13.80;91.80;;;;;;5024751;28;21628;-75
2023/11/19 09:26:41;;;;;;;33.60;9.75;;;13.80;91.60;;;;;;5018582;28;20095;-74
2023/11/19 09:29:08;;;;;;;36.70;13.85;;;13.80;91.40;;;;;;5019919;28;20125;-75
2023/11/19 09:31:34;;;;;;;43.55;16.40;;;13.60;91.30;;;;;;5017450;28;20060;-73
2023/11/19 09:34:00;;;;;;;37.38;9.32;;;13.60;91.60;;;;;;5022100;28;20107;-76
2023/11/19 09:36:25;;;;;;;32.75;6.95;;;13.40;91.90;;;;;;5017512;28;20095;-75
2023/11/19 09:38:51;;;;;;;29.08;7.10;;;13.30;92.30;;;;;;5019715;28;20377;-75
2023/11/19 09:41:19;;;;;;;32.63;7.75;;;13.40;92.50;;;;;;5017744;28;20419;-75
2023/11/19 09:43:45;;;;;;;44.50;14.07;;;13.30;92.70;;;;;;5015069;28;20030;-74
2023/11/19 09:46:15;;;;;;;32.65;12.65;;;13.30;92.80;;;;;;5020809;28;20037;-74
2023/11/19 09:48:42;;;;;;;40.97;15.45;;;13.30;92.80;;;;;;5019222;28;20073;-76
2023/11/19 09:51:11;;;;;;;40.83;15.93;;;13.30;92.90;;;;;;5022116;28;20046;-74
2023/11/19 09:53:37;;;;;;;35.53;9.20;;;13.20;93.20;;;;;;5020701;28;20041;-74
2023/11/19 09:56:04;;;;;;;30.38;8.88;;;13.10;93.70;;;;;;5021291;28;20125;-75
2023/11/19 09:58:34;;;;;;;34.72;10.10;;;13.10;93.90;;;;;;5022544;28;20037;-74
2023/11/19 10:01:00;;;;;;;29.65;7.30;;;13.10;94.30;;;;;;5021811;28;20034;-75
2023/11/19 10:03:47;;;;;;;32.25;7.28;;;13.10;94.40;;;;;;5020294;28;20438;-76
2023/11/19 10:06:15;;;;;;;33.70;6.88;;;13.00;94.60;;;;;;5020671;28;20096;-72
2023/11/19 10:08:42;;;;;;;36.17;6.78;;;13.00;94.70;;;;;;5016502;28;20501;-75
2023/11/19 10:11:10;;;;;;;38.05;6.68;;;13.00;94.90;;;;;;5018869;28;20030;-75
2023/11/19 10:13:38;;;;;;;31.38;6.82;;;13.10;95.10;;;;;;5019863;28;20061;-74
2023/11/19 10:16:08;;;;;;;34.70;7.25;;;13.10;94.80;;;;;;5023247;28;20029;-75
2023/11/19 10:18:37;;;;;;;29.40;6.22;;;13.10;94.40;;;;;;5019871;28;20033;-74
2023/11/19 10:21:07;;;;;;;29.58;7.25;;;13.20;94.30;;;;;;5018711;28;20037;-74
2023/11/19 10:23:51;;;;;;;41.55;9.30;;;13.30;94.20;;;;;;5020364;28;20037;-76
2023/11/19 10:26:18;;;;;;;;;;;13.30;94.30;;;;;;5022791;28;20029;-75
2023/11/19 10:28:45;;;;;;;30.60;7.90;;;13.40;94.20;;;;;;5022338;28;19920;-74
2023/11/19 10:31:16;;;;;;;33.97;7.22;;;13.40;93.90;;;;;;5021313;28;20116;-74
2023/11/19 10:33:43;;;;;;;38.35;7.72;;;13.50;93.50;;;;;;5015488;28;20132;-75
2023/11/19 10:36:09;;;;;;;36.70;7.57;;;13.50;93.40;;;;;;5019288;28;20357;-78
2023/11/19 10:38:35;;;;;;;26.80;6.38;;;13.70;93.30;;;;;;5020086;28;20340;-77
2023/11/19 10:41:01;;;;;;;34.75;8.35;;;13.80;92.70;;;;;;5021247;28;20037;-75
2023/11/19 10:43:27;;;;;;;28.20;6.40;;;14.00;92.30;;;;;;5021213;28;20371;-75
2023/11/19 10:45:53;;;;;;;35.92;7.13;;;14.10;91.70;;;;;;5021663;28;20037;-76
2023/11/19 10:48:20;;;;;;;33.33;7.97;;;14.10;91.50;;;;;;5017843;28;20041;-74
2023/11/19 10:50:49;;;;;;;29.42;6.80;;;14.20;91.00;;;;;;5021768;28;20581;-77
2023/11/19 10:53:15;;;;;;;45.13;16.40;;;14.20;90.60;;;;;;5018798;28;20126;-74
2023/11/19 10:55:41;;;;;;;31.70;8.10;;;14.20;90.50;;;;;;5022499;28;20092;-74
2023/11/19 10:58:09;;;;;;;28.02;8.90;;;14.20;90.70;;;;;;5018484;28;20037;-74
2023/11/19 11:00:47;;;;;;;31.20;8.43;;;14.30;91.20;;;;;;5025892;28;20029;-73
2023/11/19 11:03:20;;;;;;;36.33;8.77;;;14.30;90.60;;;;;;5018978;28;20148;-74
2023/11/19 11:05:50;;;;;;;33.97;6.60;;;14.20;90.90;;;;;;5018506;28;20096;-76
2023/11/19 11:08:17;;;;;;;31.55;7.00;;;14.10;91.00;;;;;;5020997;28;20045;-76
2023/11/19 11:10:54;;;;;;;36.80;7.35;;;14.10;91.20;;;;;;5016770;28;20043;-75
2023/11/19 11:13:23;;;;;;;33.40;6.47;;;14.20;91.20;;;;;;5015551;28;20382;-74
2023/11/19 11:15:50;;;;;;;32.83;7.20;;;14.20;90.90;;;;;;5018839;28;20037;-74
2023/11/19 11:18:18;;;;;;;31.35;7.25;;;14.10;90.70;;;;;;5019624;28;20048;-75
2023/11/19 11:20:45;;;;;;;29.55;6.55;;;14.10;91.00;;;;;;5015662;28;20087;-73
2023/11/19 11:23:22;;;;;;;23.95;6.00;;;14.30;91.20;;;;;;5022855;28;20034;-76
2023/11/19 11:26:10;;;;;;;29.50;6.82;;;14.40;90.80;;;;;;5017805;28;20041;-74
2023/11/19 11:28:36;;;;;;;35.30;7.85;;;14.30;90.40;;;;;;5020309;28;20045;-72
2023/11/19 11:31:26;;;;;;;26.23;6.88;;;14.30;90.60;;;;;;5019546;28;20033;-72
2023/11/19 11:34:29;;;;;;;29.83;7.20;;;14.20;90.70;;;;;;5019177;28;20049;-72
2023/11/19 11:37:25;;;;;;;25.27;6.35;;;14.10;91.20;;;;;;5002019;28;20041;-74
2023/11/19 11:39:53;;;;;;;35.28;7.30;;;14.10;91.50;;;;;;5017789;28;20656;-73
2023/11/19 11:42:22;;;;;;;38.38;7.55;;;14.00;91.90;;;;;;5018392;28;20041;-73
2023/11/19 11:45:02;;;;;;;35.85;7.43;;;13.90;92.20;;;;;;5014118;28;20046;-74
2023/11/19 11:48:13;;;;;;;33.70;6.95;;;13.90;92.60;;;;;;5017136;28;20531;-73
2023/11/19 11:50:54;;;;;;;30.70;6.78;;;14.10;92.80;;;;;;5011930;28;20044;-74
2023/11/19 11:53:23;;;;;;;29.35;6.20;;;14.10;92.20;;;;;;5018330;28;20455;-73
2023/11/19 11:55:48;;;;;;;24.70;6.40;;;14.00;91.60;;;;;;5019333;28;20127;-72
2023/11/19 11:58:21;;;;;;;26.75;5.53;;;14.00;91.60;;;;;;5028221;28;20041;-73
2023/11/19 12:00:48;;;;;;;23.48;6.00;;;14.10;92.10;;;;;;5039542;28;20068;-76
2023/11/19 12:03:14;;;;;;;22.13;5.15;;;14.10;91.80;;;;;;5027961;28;20129;-76
2023/11/19 12:05:44;;;;;;;28.05;6.50;;;14.10;91.90;;;;;;5011895;28;20116;-75
2023/11/19 12:08:12;;;;;;;28.73;6.57;;;14.10;92.00;;;;;;5011307;28;20363;-72
2023/11/19 12:10:48;;;;;;;22.60;7.25;;;14.20;92.10;;;;;;5013247;28;20025;-74
2023/11/19 12:13:15;;;;;;;23.55;6.43;;;14.40;92.20;;;;;;5011727;28;20038;-76
2023/11/19 12:15:56;;;;;;;29.15;6.35;;;14.50;91.70;;;;;;5014405;28;20033;-74
2023/11/19 12:18:32;;;;;;;29.80;6.38;;;14.40;91.30;;;;;;5013588;28;20211;-76
2023/11/19 12:21:00;;;;;;;29.98;6.10;;;14.40;91.00;;;;;;5010400;28;20041;-74
2023/11/19 12:23:28;;;;;;;30.77;6.88;;;14.30;91.10;;;;;;5014222;28;20042;-72
2023/11/19 12:25:55;;;;;;;26.38;6.18;;;14.10;91.50;;;;;;5012840;28;20091;-76
2023/11/19 12:28:21;;;;;;;31.95;7.82;;;14.10;91.70;;;;;;5008866;28;20045;-73
2023/11/19 12:30:48;;;;;;;29.13;6.25;;;13.90;91.80;;;;;;5011336;28;20032;-77
2023/11/19 12:33:14;;;;;;;30.73;7.18;;;13.70;92.60;;;;;;5011175;28;20038;-75
2023/11/19 12:35:42;;;;;;;25.88;6.32;;;13.70;93.00;;;;;;5019162;28;20422;-74
2023/11/19 12:38:08;;;;;;;35.53;7.25;;;13.70;92.70;;;;;;5016632;28;20076;-74